createdAt,value
2023-01-26T00:01:37.687Z,13.35
2023-01-26T00:04:04.565Z,13.48
2023-01-26T00:06:31.110Z,13.82
2023-01-26T00:08:57.723Z,14.32
2023-01-26T00:11:27.098Z,13.65
2023-01-26T00:13:54.917Z,14.77
2023-01-26T00:16:21.764Z,14.45
2023-01-26T00:18:48.449Z,13.60
2023-01-26T00:21:20.892Z,13.48
2023-01-26T00:23:49.107Z,13.25
2023-01-26T00:26:20.069Z,15.75
2023-01-26T00:28:47.267Z,12.80
2023-01-26T00:31:16.347Z,13.65
2023-01-26T00:33:42.942Z,14.40
2023-01-26T00:36:09.671Z,14.32
2023-01-26T00:38:36.195Z,15.25
2023-01-26T00:41:03.075Z,14.93
2023-01-26T00:43:29.659Z,16.52
2023-01-26T00:45:56.346Z,14.50
2023-01-26T00:48:24.695Z,16.98
2023-01-26T00:50:52.256Z,16.02
2023-01-26T00:53:18.755Z,17.05
2023-01-26T00:55:45.255Z,17.58
2023-01-26T00:58:12.019Z,17.00
2023-01-26T01:00:39.095Z,15.68
2023-01-26T01:03:06.400Z,15.60
2023-01-26T01:05:34.239Z,14.75
2023-01-26T01:08:00.926Z,16.58
2023-01-26T01:10:27.714Z,16.08
2023-01-26T01:12:54.721Z,16.63
2023-01-26T01:15:21.281Z,17.20
2023-01-26T01:17:48.381Z,13.45
2023-01-26T01:20:15.082Z,14.05
2023-01-26T01:22:41.585Z,13.10
2023-01-26T01:25:08.551Z,10.30
2023-01-26T01:27:35.120Z,14.35
2023-01-26T01:30:01.855Z,14.25
2023-01-26T01:32:28.346Z,15.82
2023-01-26T01:34:54.909Z,14.38
2023-01-26T01:37:21.503Z,16.05
2023-01-26T01:39:49.133Z,13.63
2023-01-26T01:42:15.711Z,14.82
2023-01-26T01:44:43.577Z,16.88
2023-01-26T01:47:26.759Z,11.85
2023-01-26T01:49:55.247Z,14.20
2023-01-26T01:52:29.891Z,10.30
2023-01-26T01:55:02.249Z,9.07
2023-01-26T01:57:44.936Z,10.20
2023-01-26T02:00:14.743Z,15.13
2023-01-26T02:02:44.311Z,10.10
2023-01-26T02:05:24.626Z,10.48
2023-01-26T02:07:51.806Z,13.00
2023-01-26T02:10:20.681Z,6.25
2023-01-26T02:12:50.526Z,10.57
2023-01-26T02:15:17.076Z,7.28
2023-01-26T02:17:44.227Z,12.75
2023-01-26T02:20:22.456Z,4.88
2023-01-26T02:22:57.343Z,15.43
2023-01-26T02:25:44.621Z,14.48
2023-01-26T02:28:11.197Z,16.15
2023-01-26T02:30:37.769Z,16.58
2023-01-26T02:33:04.361Z,16.27
2023-01-26T02:35:30.881Z,13.18
2023-01-26T02:37:58.065Z,17.90
2023-01-26T02:40:40.312Z,15.73
2023-01-26T02:43:07.147Z,17.05
2023-01-26T02:45:34.383Z,13.32
2023-01-26T02:48:04.810Z,8.68
2023-01-26T02:50:31.536Z,12.68
2023-01-26T02:52:58.496Z,16.58
2023-01-26T02:55:26.390Z,15.35
2023-01-26T02:58:05.051Z,9.63
2023-01-26T03:00:37.334Z,15.77
2023-01-26T03:03:12.282Z,15.70
2023-01-26T03:05:38.822Z,17.25
2023-01-26T03:08:06.293Z,11.95
2023-01-26T03:10:33.640Z,16.45
2023-01-26T03:13:00.171Z,18.17
2023-01-26T03:15:45.799Z,16.55
2023-01-26T03:18:35.717Z,18.00
2023-01-26T03:21:27.896Z,19.60
2023-01-26T03:24:12.942Z,17.13
2023-01-26T03:26:58.538Z,15.88
2023-01-26T03:29:26.711Z,13.32
2023-01-26T03:31:53.942Z,16.65
2023-01-26T03:34:20.699Z,16.83
2023-01-26T03:36:48.376Z,13.60
2023-01-26T03:39:35.101Z,14.23
2023-01-26T03:42:20.866Z,9.70
2023-01-26T03:45:06.209Z,18.80
2023-01-26T03:47:52.632Z,16.02
2023-01-26T03:50:37.811Z,11.80
2023-01-26T03:53:37.710Z,11.43
2023-01-26T03:56:20.090Z,16.10
2023-01-26T03:58:54.893Z,17.48
2023-01-26T04:01:27.734Z,17.48
2023-01-26T04:04:15.237Z,13.20
2023-01-26T04:07:02.683Z,7.82
2023-01-26T04:09:29.631Z,8.77
2023-01-26T04:11:56.163Z,10.63
2023-01-26T04:14:49.909Z,15.40
2023-01-26T04:17:36.906Z,16.83
2023-01-26T04:20:23.921Z,15.52
2023-01-26T04:22:50.499Z,16.65
2023-01-26T04:25:19.823Z,16.80
2023-01-26T04:27:46.554Z,16.67
2023-01-26T04:30:15.443Z,13.55
2023-01-26T04:32:42.222Z,15.45
2023-01-26T04:35:10.095Z,16.05
2023-01-26T04:37:36.721Z,16.50
2023-01-26T04:40:04.414Z,16.25
2023-01-26T04:42:30.985Z,16.92
2023-01-26T04:44:57.677Z,17.40
2023-01-26T04:47:24.186Z,7.03
2023-01-26T04:49:50.667Z,17.88
2023-01-26T04:52:17.215Z,16.88
2023-01-26T04:54:43.796Z,15.05
2023-01-26T04:57:10.319Z,10.43
2023-01-26T04:59:37.383Z,16.70
2023-01-26T05:02:03.907Z,13.27
2023-01-26T05:04:30.569Z,13.88
2023-01-26T05:06:57.503Z,7.78
2023-01-26T05:09:24.007Z,12.20
2023-01-26T05:11:50.476Z,8.80
2023-01-26T05:14:16.970Z,10.70
2023-01-26T05:16:43.488Z,15.05
2023-01-26T05:19:10.103Z,11.05
2023-01-26T05:21:36.630Z,15.73
2023-01-26T05:24:03.247Z,16.83
2023-01-26T05:26:29.835Z,14.60
2023-01-26T05:28:56.315Z,15.05
2023-01-26T05:31:22.861Z,15.43
2023-01-26T05:33:49.439Z,6.85
2023-01-26T05:36:16.066Z,14.88
2023-01-26T05:38:42.596Z,14.27
2023-01-26T05:41:10.222Z,11.13
2023-01-26T05:43:36.771Z,14.05
2023-01-26T05:46:03.670Z,9.98
2023-01-26T05:48:30.259Z,13.98
2023-01-26T05:50:57.995Z,11.02
2023-01-26T05:53:24.882Z,14.48
2023-01-26T05:55:51.591Z,13.38
2023-01-26T05:58:18.209Z,11.88
2023-01-26T06:00:44.738Z,9.02
2023-01-26T06:03:11.262Z,11.00
2023-01-26T06:05:38.909Z,11.90
2023-01-26T06:08:05.822Z,11.15
2023-01-26T06:10:32.340Z,14.27
2023-01-26T06:13:00.472Z,6.40
2023-01-26T06:15:27.023Z,13.00
2023-01-26T06:17:53.497Z,12.20
2023-01-26T06:20:19.969Z,12.85
2023-01-26T06:22:46.545Z,10.25
2023-01-26T06:25:13.120Z,14.25
2023-01-26T06:27:42.482Z,14.27
2023-01-26T06:30:10.933Z,12.30
2023-01-26T06:32:37.650Z,15.13
2023-01-26T06:35:08.444Z,15.07
2023-01-26T06:37:35.362Z,7.40
2023-01-26T06:40:02.236Z,5.45
2023-01-26T06:42:28.877Z,14.55
2023-01-26T06:44:57.526Z,14.20
2023-01-26T06:47:24.207Z,12.38
2023-01-26T06:49:50.777Z,15.82
2023-01-26T06:52:32.208Z,15.80
2023-01-26T06:55:00.500Z,14.65
2023-01-26T06:57:27.132Z,14.40
2023-01-26T06:59:53.932Z,16.30
2023-01-26T07:02:22.458Z,16.95
2023-01-26T07:04:50.446Z,16.17
2023-01-26T07:07:17.123Z,13.45
2023-01-26T07:09:43.679Z,14.85
2023-01-26T07:12:10.210Z,16.42
2023-01-26T07:14:42.927Z,16.55
2023-01-26T07:17:09.475Z,15.98
2023-01-26T07:19:43.117Z,16.45
2023-01-26T07:22:09.656Z,14.85
2023-01-26T07:24:36.273Z,15.20
2023-01-26T07:27:02.747Z,13.82
2023-01-26T07:29:29.519Z,15.43
2023-01-26T07:32:02.073Z,15.55
2023-01-26T07:34:28.645Z,16.75
2023-01-26T07:36:55.156Z,17.08
2023-01-26T07:39:21.659Z,13.85
2023-01-26T07:41:49.498Z,8.70
2023-01-26T07:44:16.096Z,8.23
2023-01-26T07:46:44.758Z,9.73
2023-01-26T07:49:12.739Z,12.98
2023-01-26T07:51:39.848Z,12.45
2023-01-26T07:54:07.199Z,17.13
2023-01-26T07:56:33.680Z,18.25
2023-01-26T07:59:02.877Z,18.10
2023-01-26T08:01:30.583Z,14.82
2023-01-26T08:03:57.332Z,18.23
2023-01-26T08:06:24.972Z,19.27
2023-01-26T08:08:51.649Z,17.13
2023-01-26T08:11:19.545Z,16.60
2023-01-26T08:13:46.101Z,14.40
2023-01-26T08:16:13.151Z,18.70
2023-01-26T08:18:44.041Z,17.45
2023-01-26T08:21:12.198Z,16.60
2023-01-26T08:23:38.722Z,17.33
2023-01-26T08:26:08.040Z,16.65
2023-01-26T08:28:35.229Z,16.55
2023-01-26T08:31:13.696Z,16.90
2023-01-26T08:33:43.517Z,17.25
2023-01-26T08:36:14.977Z,17.58
2023-01-26T08:38:42.257Z,18.50
2023-01-26T08:41:09.447Z,17.10
2023-01-26T08:43:36.186Z,17.63
2023-01-26T08:46:03.278Z,17.23
2023-01-26T08:48:31.302Z,18.02
2023-01-26T08:51:00.715Z,18.20
2023-01-26T08:53:29.743Z,16.75
2023-01-26T08:55:56.304Z,16.52
2023-01-26T08:58:22.883Z,17.52
2023-01-26T09:00:49.530Z,16.75
2023-01-26T09:03:16.075Z,16.02
2023-01-26T09:05:42.650Z,15.82
2023-01-26T09:08:10.575Z,15.40
2023-01-26T09:10:38.619Z,17.55
2023-01-26T09:13:05.379Z,17.15
2023-01-26T09:15:32.904Z,15.82
2023-01-26T09:18:01.041Z,17.48
2023-01-26T09:20:27.747Z,17.35
2023-01-26T09:22:54.753Z,17.23
2023-01-26T09:25:21.302Z,17.45
2023-01-26T09:27:47.785Z,15.82
2023-01-26T09:30:14.932Z,17.45
2023-01-26T09:32:41.447Z,17.38
2023-01-26T09:35:14.386Z,17.30
2023-01-26T09:37:43.346Z,17.48
2023-01-26T09:40:19.677Z,17.40
2023-01-26T09:43:05.289Z,17.92
2023-01-26T09:45:49.922Z,17.13
2023-01-26T09:48:42.132Z,15.75
2023-01-26T09:51:19.779Z,16.75
2023-01-26T09:53:57.035Z,17.70
2023-01-26T09:56:28.370Z,16.05
2023-01-26T09:59:12.228Z,16.15
2023-01-26T10:01:51.158Z,17.50
2023-01-26T10:04:38.468Z,18.92
2023-01-26T10:07:14.606Z,18.40
2023-01-26T10:12:30.443Z,17.00
2023-01-26T10:15:04.942Z,17.10
2023-01-26T10:17:43.699Z,17.50
2023-01-26T10:20:29.744Z,18.10
2023-01-26T10:23:02.108Z,16.45
2023-01-26T10:25:39.146Z,17.75
2023-01-26T10:28:14.385Z,17.50
2023-01-26T10:30:42.899Z,16.70
2023-01-26T10:33:26.673Z,15.13
2023-01-26T10:35:53.895Z,16.40
2023-01-26T10:38:47.330Z,17.05
2023-01-26T10:41:23.584Z,16.10
2023-01-26T10:43:59.161Z,16.25
2023-01-26T10:46:32.105Z,15.57
2023-01-26T10:49:09.937Z,13.85
2023-01-26T10:51:39.306Z,15.27
2023-01-26T10:54:20.659Z,15.65
2023-01-26T10:56:49.388Z,17.58
2023-01-26T10:59:25.876Z,16.55
2023-01-26T11:01:54.963Z,16.77
2023-01-26T11:04:22.116Z,16.00
2023-01-26T11:06:48.800Z,17.35
2023-01-26T11:09:15.253Z,14.43
2023-01-26T11:11:42.028Z,17.35
2023-01-26T11:14:20.707Z,15.38
2023-01-26T11:16:59.820Z,17.10
2023-01-26T11:19:48.281Z,15.68
2023-01-26T11:22:25.955Z,14.32
2023-01-26T11:25:40.292Z,16.58
2023-01-26T11:28:47.900Z,17.42
2023-01-26T11:34:27.276Z,16.48
2023-01-26T11:37:36.570Z,15.88
2023-01-26T11:40:45.881Z,15.77
2023-01-26T11:43:30.354Z,17.63
2023-01-26T11:46:24.562Z,16.33
2023-01-26T11:49:25.715Z,15.43
2023-01-26T11:52:11.024Z,16.38
2023-01-26T11:54:50.936Z,14.95
2023-01-26T11:57:34.525Z,16.65
2023-01-26T12:00:17.701Z,15.65
2023-01-26T12:03:01.820Z,15.48
2023-01-26T12:05:51.309Z,15.77
2023-01-26T12:08:38.529Z,17.10
2023-01-26T12:11:26.366Z,14.10
2023-01-26T12:13:56.413Z,16.27
2023-01-26T12:16:56.453Z,16.40
2023-01-26T12:19:40.576Z,16.42
2023-01-26T12:22:20.152Z,17.10
2023-01-26T12:25:19.123Z,17.38
2023-01-26T12:28:09.971Z,15.98
2023-01-26T12:30:46.206Z,17.65
2023-01-26T12:33:13.087Z,17.27
2023-01-26T12:35:50.651Z,15.95
2023-01-26T12:38:40.462Z,17.65
2023-01-26T12:41:48.133Z,17.55
2023-01-26T12:44:25.853Z,16.98
2023-01-26T12:46:56.613Z,17.70
2023-01-26T12:49:35.252Z,17.85
2023-01-26T12:52:27.630Z,19.08
2023-01-26T12:55:03.311Z,16.00
2023-01-26T12:57:38.290Z,20.15
2023-01-26T13:00:19.525Z,18.52
2023-01-26T13:02:49.221Z,17.92
2023-01-26T13:05:28.492Z,18.23
2023-01-26T13:07:55.313Z,19.38
2023-01-26T13:10:23.635Z,17.90
2023-01-26T13:13:20.612Z,18.42
2023-01-26T13:15:47.854Z,17.58
2023-01-26T13:18:18.321Z,18.08
2023-01-26T13:20:46.085Z,18.77
2023-01-26T13:23:37.358Z,19.08
2023-01-26T13:26:33.103Z,18.33
2023-01-26T13:29:27.508Z,17.58
2023-01-26T13:31:59.248Z,15.05
2023-01-26T13:34:36.350Z,16.35
2023-01-26T13:37:33.467Z,18.88
2023-01-26T13:42:36.430Z,15.02
2023-01-26T13:45:18.979Z,14.82
2023-01-26T13:47:49.222Z,13.68
2023-01-26T13:50:23.627Z,14.68
2023-01-26T13:52:50.162Z,14.63
2023-01-26T13:55:33.399Z,16.02
2023-01-26T13:58:12.933Z,16.98
2023-01-26T14:00:39.785Z,14.68
2023-01-26T14:03:18.646Z,13.38
2023-01-26T14:05:52.877Z,13.35
2023-01-26T14:08:22.196Z,14.77
2023-01-26T14:10:49.439Z,13.80
2023-01-26T14:13:26.676Z,14.40
2023-01-26T14:16:00.642Z,16.55
2023-01-26T14:18:27.613Z,15.15
2023-01-26T14:21:06.810Z,15.52
2023-01-26T14:23:36.127Z,15.52
2023-01-26T14:26:17.438Z,15.35
2023-01-26T14:28:44.307Z,15.02
2023-01-26T14:31:18.804Z,17.25
2023-01-26T14:33:46.117Z,15.20
2023-01-26T14:36:17.003Z,16.13
2023-01-26T14:38:48.628Z,15.65
2023-01-26T14:41:26.977Z,14.55
2023-01-26T14:43:57.217Z,15.73
2023-01-26T14:46:32.356Z,15.00
2023-01-26T14:49:09.685Z,14.57
2023-01-26T14:51:37.570Z,16.10
2023-01-26T14:54:15.520Z,14.32
2023-01-26T14:56:46.849Z,15.68
2023-01-26T14:59:24.246Z,15.40
2023-01-26T15:01:51.001Z,15.65
2023-01-26T15:04:34.747Z,14.45
2023-01-26T15:07:34.909Z,12.57
2023-01-26T15:10:02.793Z,13.73
2023-01-26T15:12:34.270Z,15.73
2023-01-26T15:15:01.922Z,12.85
2023-01-26T15:17:31.463Z,13.95
2023-01-26T15:19:58.074Z,14.13
2023-01-26T15:22:26.720Z,16.05
2023-01-26T15:25:14.144Z,15.15
2023-01-26T15:27:40.793Z,15.50
2023-01-26T15:30:16.263Z,16.13
2023-01-26T15:32:43.774Z,17.13
2023-01-26T15:35:29.096Z,15.80
2023-01-26T15:38:11.828Z,16.38
2023-01-26T15:40:39.006Z,15.68
2023-01-26T15:43:16.270Z,16.40
2023-01-26T15:46:01.312Z,17.48
2023-01-26T15:48:32.188Z,17.77
2023-01-26T15:50:58.719Z,16.50
2023-01-26T15:53:25.549Z,16.90
2023-01-26T15:55:53.036Z,15.90
2023-01-26T15:58:19.776Z,17.05
2023-01-26T16:00:46.399Z,17.02
2023-01-26T16:03:16.304Z,17.33
2023-01-26T16:05:44.247Z,16.75
2023-01-26T16:08:10.805Z,17.27
2023-01-26T16:10:38.444Z,16.02
2023-01-26T16:13:12.451Z,15.70
2023-01-26T16:15:46.225Z,16.48
2023-01-26T16:18:13.206Z,17.13
2023-01-26T16:20:42.605Z,17.45
2023-01-26T16:23:20.909Z,17.02
2023-01-26T16:25:48.243Z,16.15
2023-01-26T16:28:15.356Z,18.73
2023-01-26T16:30:46.767Z,16.15
2023-01-26T16:33:15.463Z,16.55
2023-01-26T16:35:42.944Z,17.10
2023-01-26T16:38:13.010Z,15.95
2023-01-26T16:40:44.979Z,16.67
2023-01-26T16:43:24.328Z,16.50
2023-01-26T16:45:51.999Z,15.27
2023-01-26T16:48:19.152Z,16.20
2023-01-26T16:50:46.042Z,17.02
2023-01-26T16:53:27.888Z,16.55
2023-01-26T16:55:55.016Z,15.45
2023-01-26T16:58:23.128Z,15.52
2023-01-26T17:00:49.869Z,15.65
2023-01-26T17:03:16.388Z,15.60
2023-01-26T17:05:43.382Z,17.67
2023-01-26T17:08:10.276Z,16.48
2023-01-26T17:10:36.821Z,16.63
2023-01-26T17:13:04.148Z,16.63
2023-01-26T17:15:31.576Z,16.10
2023-01-26T17:17:58.255Z,16.17
2023-01-26T17:20:25.228Z,16.42
2023-01-26T17:22:51.849Z,16.98
2023-01-26T17:25:19.046Z,17.17
2023-01-26T17:27:49.777Z,16.52
2023-01-26T17:30:17.999Z,16.70
2023-01-26T17:32:44.888Z,17.25
2023-01-26T17:35:12.215Z,17.92
2023-01-26T17:37:39.636Z,15.43
2023-01-26T17:40:07.399Z,16.50
2023-01-26T17:42:35.190Z,18.60
2023-01-26T17:45:03.985Z,17.23
2023-01-26T17:47:34.306Z,17.60
2023-01-26T17:50:01.428Z,17.65
2023-01-26T17:52:28.379Z,17.30
2023-01-26T17:54:54.898Z,16.50
2023-01-26T17:57:21.555Z,17.20
2023-01-26T17:59:48.270Z,18.13
2023-01-26T18:02:14.927Z,17.58
2023-01-26T18:04:41.475Z,18.00
2023-01-26T18:07:08.005Z,15.70
2023-01-26T18:09:34.528Z,15.65
2023-01-26T18:12:01.119Z,15.77
2023-01-26T18:14:27.631Z,17.08
2023-01-26T18:16:54.184Z,17.25
2023-01-26T18:19:20.819Z,16.05
2023-01-26T18:21:49.537Z,15.32
2023-01-26T18:24:17.658Z,17.27
2023-01-26T18:26:44.256Z,17.98
2023-01-26T18:29:11.221Z,19.00
2023-01-26T18:31:43.554Z,18.38
2023-01-26T18:34:11.346Z,20.73
2023-01-26T18:36:37.898Z,20.48
2023-01-26T18:39:08.991Z,19.73
2023-01-26T18:41:35.703Z,19.83
2023-01-26T18:44:03.827Z,18.88
2023-01-26T18:46:33.350Z,17.42
2023-01-26T18:49:03.654Z,16.27
2023-01-26T18:51:32.720Z,20.08
2023-01-26T18:53:59.285Z,16.52
2023-01-26T18:56:26.151Z,18.92
2023-01-26T18:58:54.048Z,19.27
2023-01-26T19:01:22.418Z,18.60
2023-01-26T19:03:55.149Z,19.13
2023-01-26T19:06:24.045Z,19.73
2023-01-26T19:09:00.821Z,19.80
2023-01-26T19:11:30.961Z,21.20
2023-01-26T19:13:58.094Z,19.65
2023-01-26T19:16:25.084Z,21.33
2023-01-26T19:18:52.569Z,22.77
2023-01-26T19:21:24.644Z,23.35
2023-01-26T19:23:53.587Z,23.67
2023-01-26T19:26:26.255Z,26.08
2023-01-26T19:28:54.343Z,27.27
2023-01-26T19:31:22.125Z,29.27
2023-01-26T19:34:00.379Z,27.80
2023-01-26T19:36:29.862Z,28.35
2023-01-26T19:38:56.998Z,24.98
2023-01-26T19:41:24.583Z,24.00
2023-01-26T19:43:51.942Z,22.40
2023-01-26T19:46:19.806Z,22.50
2023-01-26T19:48:46.622Z,20.50
2023-01-26T19:51:15.765Z,20.25
2023-01-26T19:53:45.942Z,20.65
2023-01-26T19:56:16.410Z,20.92
2023-01-26T19:58:44.143Z,21.67
2023-01-26T20:01:12.507Z,21.63
2023-01-26T20:03:39.371Z,20.30
2023-01-26T20:06:13.447Z,20.88
2023-01-26T20:08:39.958Z,21.83
2023-01-26T20:11:08.467Z,20.67
2023-01-26T20:13:36.016Z,21.35
2023-01-26T20:16:04.208Z,21.52
2023-01-26T20:18:31.064Z,21.65
2023-01-26T20:21:00.692Z,21.45
2023-01-26T20:23:27.790Z,22.35
2023-01-26T20:26:14.651Z,23.75
2023-01-26T20:28:41.360Z,22.10
2023-01-26T20:31:12.059Z,21.98
2023-01-26T20:33:39.309Z,21.83
2023-01-26T20:36:12.702Z,22.33
2023-01-26T20:38:39.335Z,20.75
2023-01-26T20:41:11.222Z,23.58
2023-01-26T20:43:41.402Z,21.77
2023-01-26T20:46:11.256Z,23.52
2023-01-26T20:48:38.795Z,24.83
2023-01-26T20:51:17.692Z,22.92
2023-01-26T20:53:45.824Z,26.08
2023-01-26T20:56:14.385Z,25.35
2023-01-26T20:58:42.768Z,26.55
2023-01-26T21:01:14.896Z,26.00
2023-01-26T21:03:42.453Z,24.02
2023-01-26T21:06:11.388Z,24.45
2023-01-26T21:08:38.410Z,24.23
2023-01-26T21:11:07.909Z,24.92
2023-01-26T21:13:38.314Z,26.45
2023-01-26T21:16:05.306Z,26.75
2023-01-26T21:18:31.882Z,25.27
2023-01-26T21:21:00.971Z,25.17
2023-01-26T21:23:27.553Z,26.40
2023-01-26T21:25:59.463Z,25.70
2023-01-26T21:28:26.513Z,24.65
2023-01-26T21:31:08.255Z,24.80
2023-01-26T21:33:38.636Z,24.80
2023-01-26T21:36:07.617Z,24.20
2023-01-26T21:38:36.920Z,22.83
2023-01-26T21:41:36.545Z,24.63
2023-01-26T21:44:11.601Z,24.88
2023-01-26T21:46:38.219Z,23.65
2023-01-26T21:49:05.615Z,23.85
2023-01-26T21:51:51.262Z,25.95
2023-01-26T21:54:18.263Z,23.85
2023-01-26T21:56:44.816Z,24.92
2023-01-26T21:59:14.805Z,23.90
2023-01-26T22:01:44.519Z,25.63
2023-01-26T22:04:14.076Z,26.38
2023-01-26T22:06:40.981Z,26.00
2023-01-26T22:09:10.574Z,24.77
2023-01-26T22:11:37.312Z,23.55
2023-01-26T22:14:04.107Z,22.52
2023-01-26T22:16:30.823Z,21.10
2023-01-26T22:18:57.375Z,21.55
2023-01-26T22:21:24.259Z,17.02
2023-01-26T22:23:50.841Z,18.00
2023-01-26T22:26:20.050Z,16.92
2023-01-26T22:28:57.532Z,16.27
2023-01-26T22:31:27.780Z,14.82
2023-01-26T22:33:55.677Z,13.88
2023-01-26T22:36:23.004Z,13.25
2023-01-26T22:38:50.424Z,14.43
2023-01-26T22:41:22.083Z,13.07
2023-01-26T22:43:50.027Z,12.35
2023-01-26T22:46:18.684Z,13.15
2023-01-26T22:48:45.650Z,11.98
2023-01-26T22:51:18.283Z,11.27
2023-01-26T22:53:45.120Z,12.70
2023-01-26T22:56:11.921Z,12.60
2023-01-26T22:58:47.673Z,11.90
2023-01-26T23:01:22.353Z,12.90
2023-01-26T23:03:53.858Z,11.40
2023-01-26T23:06:20.977Z,12.98
2023-01-26T23:08:47.639Z,11.23
2023-01-26T23:11:19.773Z,12.68
2023-01-26T23:13:48.719Z,11.35
2023-01-26T23:16:15.705Z,10.82
2023-01-26T23:18:43.183Z,11.15
2023-01-26T23:21:10.319Z,12.85
2023-01-26T23:23:38.974Z,14.60
2023-01-26T23:26:05.985Z,12.73
2023-01-26T23:28:35.499Z,14.20
2023-01-26T23:31:02.159Z,13.40
2023-01-26T23:33:31.291Z,12.88
2023-01-26T23:35:58.280Z,13.55
2023-01-26T23:38:26.993Z,10.65
2023-01-26T23:40:54.297Z,13.38
2023-01-26T23:43:21.443Z,13.70
2023-01-26T23:45:49.387Z,11.55
2023-01-26T23:48:16.477Z,13.63
2023-01-26T23:50:43.009Z,13.73
2023-01-26T23:53:09.747Z,14.98
2023-01-26T23:55:40.725Z,13.02
2023-01-26T23:58:07.373Z,15.20
